Greenfield, Tennessee
Current Conditions -  °F | °C
As of 10:35 AM on Friday 21 Nov 2014 (Local Time) from KUCY Reporting Station
Broken Clouds Broken Clouds  
Wind Chill: 38°   Ceiling: 4600
Heat Index: 43°   Visibility: 10mi
Dew Point: 25°   Wind: 8mph
Humidity: 49%   Direction: 110°ESE
Pressure: 30.39"   Gusts: NA
Location:  36.15°N, 88.8°W
Report Text: KUCY 211635Z AUTO 11007KT 10SM BKN046 06/M04 A3039 RMK
Loading
Personal Weather Stations






























Interactive Weather Map New forecast layout! Learn more

10-Day Weather Forecast

Advertisements
Track Severe Weather on mobile